sensor_id;sensor_type;location;lat;lon;timestamp;P1;durP1;ratioP1;P2;durP2;ratioP2
4835;SDS011;66719;51.226;6.902;2023-02-18T00:00:58;18.33;;;11.13;;
4835;SDS011;66719;51.226;6.902;2023-02-18T00:03:29;17.47;;;11.20;;
4835;SDS011;66719;51.226;6.902;2023-02-18T00:05:55;17.67;;;10.80;;
4835;SDS011;66719;51.226;6.902;2023-02-18T00:08:22;19.27;;;11.07;;
4835;SDS011;66719;51.226;6.902;2023-02-18T00:10:49;18.37;;;11.43;;
4835;SDS011;66719;51.226;6.902;2023-02-18T00:13:16;18.13;;;9.97;;
4835;SDS011;66719;51.226;6.902;2023-02-18T00:15:42;18.50;;;10.63;;
4835;SDS011;66719;51.226;6.902;2023-02-18T00:18:09;20.03;;;11.33;;
4835;SDS011;66719;51.226;6.902;2023-02-18T00:20:37;20.93;;;10.73;;
4835;SDS011;66719;51.226;6.902;2023-02-18T00:23:04;17.80;;;10.33;;
4835;SDS011;66719;51.226;6.902;2023-02-18T00:25:31;20.90;;;10.63;;
4835;SDS011;66719;51.226;6.902;2023-02-18T00:27:57;18.30;;;10.10;;
4835;SDS011;66719;51.226;6.902;2023-02-18T00:30:24;19.90;;;9.77;;
4835;SDS011;66719;51.226;6.902;2023-02-18T00:32:50;23.40;;;11.60;;
4835;SDS011;66719;51.226;6.902;2023-02-18T00:35:17;20.90;;;10.50;;
4835;SDS011;66719;51.226;6.902;2023-02-18T00:37:43;19.37;;;10.97;;
4835;SDS011;66719;51.226;6.902;2023-02-18T00:40:10;19.30;;;10.83;;
4835;SDS011;66719;51.226;6.902;2023-02-18T00:42:36;18.23;;;10.30;;
4835;SDS011;66719;51.226;6.902;2023-02-18T00:45:03;19.13;;;11.70;;
4835;SDS011;66719;51.226;6.902;2023-02-18T00:47:30;19.43;;;10.83;;
4835;SDS011;66719;51.226;6.902;2023-02-18T00:49:56;18.87;;;11.83;;
4835;SDS011;66719;51.226;6.902;2023-02-18T00:52:23;18.17;;;11.03;;
4835;SDS011;66719;51.226;6.902;2023-02-18T00:54:50;20.13;;;11.47;;
4835;SDS011;66719;51.226;6.902;2023-02-18T00:57:16;20.00;;;10.80;;
4835;SDS011;66719;51.226;6.902;2023-02-18T00:59:43;19.57;;;12.00;;
4835;SDS011;66719;51.226;6.902;2023-02-18T01:02:10;19.50;;;11.53;;
4835;SDS011;66719;51.226;6.902;2023-02-18T01:04:36;19.40;;;12.37;;
4835;SDS011;66719;51.226;6.902;2023-02-18T01:07:03;19.20;;;11.23;;
4835;SDS011;66719;51.226;6.902;2023-02-18T01:09:29;23.17;;;13.20;;
4835;SDS011;66719;51.226;6.902;2023-02-18T01:11:56;19.33;;;11.73;;
4835;SDS011;66719;51.226;6.902;2023-02-18T01:14:22;18.33;;;11.53;;
4835;SDS011;66719;51.226;6.902;2023-02-18T01:16:49;20.13;;;12.17;;
4835;SDS011;66719;51.226;6.902;2023-02-18T01:19:15;20.80;;;12.63;;
4835;SDS011;66719;51.226;6.902;2023-02-18T01:21:42;19.83;;;12.60;;
4835;SDS011;66719;51.226;6.902;2023-02-18T01:24:08;20.43;;;11.80;;
4835;SDS011;66719;51.226;6.902;2023-02-18T01:26:35;19.73;;;11.17;;
4835;SDS011;66719;51.226;6.902;2023-02-18T01:29:01;20.10;;;11.03;;
4835;SDS011;66719;51.226;6.902;2023-02-18T01:31:28;18.30;;;11.17;;
4835;SDS011;66719;51.226;6.902;2023-02-18T01:33:55;20.07;;;11.27;;
4835;SDS011;66719;51.226;6.902;2023-02-18T01:36:21;19.37;;;11.47;;
4835;SDS011;66719;51.226;6.902;2023-02-18T01:38:48;23.70;;;11.50;;
4835;SDS011;66719;51.226;6.902;2023-02-18T01:41:14;20.23;;;12.10;;
4835;SDS011;66719;51.226;6.902;2023-02-18T01:43:41;19.73;;;11.23;;
4835;SDS011;66719;51.226;6.902;2023-02-18T01:48:47;16.97;;;10.37;;
4835;SDS011;66719;51.226;6.902;2023-02-18T01:54:04;17.50;;;10.57;;
4835;SDS011;66719;51.226;6.902;2023-02-18T01:59:13;17.90;;;10.70;;
4835;SDS011;66719;51.226;6.902;2023-02-18T02:01:44;18.17;;;10.93;;
4835;SDS011;66719;51.226;6.902;2023-02-18T02:04:11;17.83;;;10.60;;
4835;SDS011;66719;51.226;6.902;2023-02-18T02:06:38;17.80;;;9.67;;
4835;SDS011;66719;51.226;6.902;2023-02-18T02:09:05;16.27;;;10.00;;
4835;SDS011;66719;51.226;6.902;2023-02-18T02:14:41;17.60;;;10.23;;
4835;SDS011;66719;51.226;6.902;2023-02-18T02:17:33;18.73;;;9.77;;
4835;SDS011;66719;51.226;6.902;2023-02-18T02:20:26;17.73;;;10.10;;
4835;SDS011;66719;51.226;6.902;2023-02-18T02:39:44;16.90;;;9.87;;
4835;SDS011;66719;51.226;6.902;2023-02-18T02:42:46;17.83;;;10.23;;
4835;SDS011;66719;51.226;6.902;2023-02-18T02:45:28;15.93;;;8.43;;
4835;SDS011;66719;51.226;6.902;2023-02-18T02:48:09;15.53;;;9.00;;
4835;SDS011;66719;51.226;6.902;2023-02-18T02:50:44;16.33;;;9.30;;
4835;SDS011;66719;51.226;6.902;2023-02-18T02:53:20;15.53;;;8.80;;
4835;SDS011;66719;51.226;6.902;2023-02-18T02:55:49;17.17;;;9.57;;
4835;SDS011;66719;51.226;6.902;2023-02-18T02:58:17;20.07;;;10.13;;
4835;SDS011;66719;51.226;6.902;2023-02-18T03:00:55;15.80;;;8.77;;
4835;SDS011;66719;51.226;6.902;2023-02-18T03:06:25;16.30;;;9.97;;
4835;SDS011;66719;51.226;6.902;2023-02-18T03:11:46;17.23;;;10.33;;
4835;SDS011;66719;51.226;6.902;2023-02-18T03:14:29;18.77;;;10.80;;
4835;SDS011;66719;51.226;6.902;2023-02-18T03:17:02;17.63;;;10.77;;
4835;SDS011;66719;51.226;6.902;2023-02-18T03:19:46;17.03;;;10.00;;
4835;SDS011;66719;51.226;6.902;2023-02-18T03:22:22;17.60;;;10.57;;
4835;SDS011;66719;51.226;6.902;2023-02-18T03:24:53;17.37;;;9.77;;
4835;SDS011;66719;51.226;6.902;2023-02-18T03:30:05;17.60;;;10.20;;
4835;SDS011;66719;51.226;6.902;2023-02-18T03:32:36;15.80;;;9.30;;
4835;SDS011;66719;51.226;6.902;2023-02-18T03:35:10;15.43;;;9.10;;
4835;SDS011;66719;51.226;6.902;2023-02-18T03:37:53;18.50;;;10.10;;
4835;SDS011;66719;51.226;6.902;2023-02-18T03:40:28;16.50;;;9.17;;
4835;SDS011;66719;51.226;6.902;2023-02-18T03:42:58;18.17;;;8.73;;
4835;SDS011;66719;51.226;6.902;2023-02-18T03:45:25;15.37;;;8.50;;
4835;SDS011;66719;51.226;6.902;2023-02-18T03:47:52;19.20;;;8.80;;
4835;SDS011;66719;51.226;6.902;2023-02-18T03:50:19;16.30;;;9.37;;
4835;SDS011;66719;51.226;6.902;2023-02-18T03:52:45;14.43;;;8.03;;
4835;SDS011;66719;51.226;6.902;2023-02-18T03:55:12;14.57;;;7.17;;
4835;SDS011;66719;51.226;6.902;2023-02-18T03:57:38;13.87;;;7.70;;
4835;SDS011;66719;51.226;6.902;2023-02-18T04:00:05;13.73;;;7.07;;
4835;SDS011;66719;51.226;6.902;2023-02-18T04:02:32;13.73;;;7.07;;
4835;SDS011;66719;51.226;6.902;2023-02-18T04:04:59;13.47;;;7.33;;
4835;SDS011;66719;51.226;6.902;2023-02-18T04:07:25;13.40;;;7.17;;
4835;SDS011;66719;51.226;6.902;2023-02-18T04:09:52;11.40;;;5.93;;
4835;SDS011;66719;51.226;6.902;2023-02-18T04:12:18;12.40;;;5.73;;
4835;SDS011;66719;51.226;6.902;2023-02-18T04:14:45;10.93;;;5.43;;
4835;SDS011;66719;51.226;6.902;2023-02-18T04:17:11;12.00;;;5.67;;
4835;SDS011;66719;51.226;6.902;2023-02-18T04:19:38;10.37;;;5.03;;
4835;SDS011;66719;51.226;6.902;2023-02-18T04:22:04;9.23;;;4.53;;
4835;SDS011;66719;51.226;6.902;2023-02-18T04:24:31;10.50;;;5.23;;
4835;SDS011;66719;51.226;6.902;2023-02-18T04:26:57;10.73;;;5.17;;
4835;SDS011;66719;51.226;6.902;2023-02-18T04:29:23;10.60;;;4.70;;
4835;SDS011;66719;51.226;6.902;2023-02-18T04:31:50;11.80;;;4.60;;
4835;SDS011;66719;51.226;6.902;2023-02-18T04:34:17;10.00;;;4.90;;
4835;SDS011;66719;51.226;6.902;2023-02-18T04:36:43;11.40;;;4.73;;
4835;SDS011;66719;51.226;6.902;2023-02-18T04:39:10;9.13;;;4.07;;
4835;SDS011;66719;51.226;6.902;2023-02-18T04:41:36;9.33;;;4.03;;
4835;SDS011;66719;51.226;6.902;2023-02-18T04:44:03;9.20;;;3.63;;
4835;SDS011;66719;51.226;6.902;2023-02-18T04:46:30;10.90;;;4.47;;
4835;SDS011;66719;51.226;6.902;2023-02-18T04:48:57;9.93;;;4.40;;
4835;SDS011;66719;51.226;6.902;2023-02-18T04:51:24;9.20;;;4.50;;
4835;SDS011;66719;51.226;6.902;2023-02-18T04:53:50;13.33;;;5.10;;
4835;SDS011;66719;51.226;6.902;2023-02-18T04:56:17;9.50;;;4.20;;
4835;SDS011;66719;51.226;6.902;2023-02-18T04:58:43;10.73;;;3.77;;
4835;SDS011;66719;51.226;6.902;2023-02-18T05:01:10;7.97;;;3.23;;
4835;SDS011;66719;51.226;6.902;2023-02-18T05:03:36;9.67;;;3.90;;
4835;SDS011;66719;51.226;6.902;2023-02-18T05:06:03;8.07;;;3.37;;
4835;SDS011;66719;51.226;6.902;2023-02-18T05:08:30;7.77;;;3.00;;
4835;SDS011;66719;51.226;6.902;2023-02-18T05:10:56;9.63;;;3.07;;
4835;SDS011;66719;51.226;6.902;2023-02-18T05:13:23;9.53;;;3.03;;
4835;SDS011;66719;51.226;6.902;2023-02-18T05:15:50;7.70;;;2.70;;
4835;SDS011;66719;51.226;6.902;2023-02-18T05:18:17;7.07;;;2.67;;
4835;SDS011;66719;51.226;6.902;2023-02-18T05:20:44;9.43;;;2.97;;
4835;SDS011;66719;51.226;6.902;2023-02-18T05:23:10;8.90;;;3.13;;
4835;SDS011;66719;51.226;6.902;2023-02-18T05:25:37;7.60;;;2.90;;
4835;SDS011;66719;51.226;6.902;2023-02-18T05:28:03;7.67;;;2.93;;
4835;SDS011;66719;51.226;6.902;2023-02-18T05:30:30;7.37;;;2.90;;
4835;SDS011;66719;51.226;6.902;2023-02-18T05:32:56;6.80;;;2.30;;
4835;SDS011;66719;51.226;6.902;2023-02-18T05:35:23;8.50;;;2.90;;
4835;SDS011;66719;51.226;6.902;2023-02-18T05:37:49;7.63;;;3.17;;
4835;SDS011;66719;51.226;6.902;2023-02-18T05:40:16;7.80;;;2.90;;
4835;SDS011;66719;51.226;6.902;2023-02-18T05:42:42;8.20;;;3.13;;
4835;SDS011;66719;51.226;6.902;2023-02-18T05:45:09;8.17;;;3.17;;
4835;SDS011;66719;51.226;6.902;2023-02-18T05:47:36;11.33;;;4.00;;
4835;SDS011;66719;51.226;6.902;2023-02-18T05:50:03;9.03;;;4.00;;
4835;SDS011;66719;51.226;6.902;2023-02-18T05:52:30;8.30;;;3.27;;
4835;SDS011;66719;51.226;6.902;2023-02-18T05:54:57;8.57;;;3.60;;
4835;SDS011;66719;51.226;6.902;2023-02-18T05:57:23;9.10;;;4.00;;
4835;SDS011;66719;51.226;6.902;2023-02-18T05:59:51;9.57;;;3.80;;
4835;SDS011;66719;51.226;6.902;2023-02-18T06:02:17;8.30;;;3.40;;
4835;SDS011;66719;51.226;6.902;2023-02-18T06:04:44;10.57;;;4.47;;
4835;SDS011;66719;51.226;6.902;2023-02-18T06:07:10;9.80;;;3.80;;
4835;SDS011;66719;51.226;6.902;2023-02-18T06:09:37;8.33;;;3.63;;
4835;SDS011;66719;51.226;6.902;2023-02-18T06:12:04;9.63;;;4.17;;
4835;SDS011;66719;51.226;6.902;2023-02-18T06:14:30;9.60;;;4.50;;
4835;SDS011;66719;51.226;6.902;2023-02-18T06:16:57;9.30;;;4.30;;
4835;SDS011;66719;51.226;6.902;2023-02-18T06:19:23;8.80;;;3.90;;
4835;SDS011;66719;51.226;6.902;2023-02-18T06:21:50;10.80;;;4.43;;
4835;SDS011;66719;51.226;6.902;2023-02-18T06:24:16;9.07;;;4.40;;
4835;SDS011;66719;51.226;6.902;2023-02-18T06:26:43;8.53;;;4.20;;
4835;SDS011;66719;51.226;6.902;2023-02-18T06:29:09;9.60;;;4.90;;
4835;SDS011;66719;51.226;6.902;2023-02-18T06:31:36;9.23;;;4.20;;
4835;SDS011;66719;51.226;6.902;2023-02-18T06:34:02;9.20;;;4.20;;
4835;SDS011;66719;51.226;6.902;2023-02-18T06:36:29;8.53;;;3.90;;
4835;SDS011;66719;51.226;6.902;2023-02-18T06:38:55;9.57;;;4.40;;
4835;SDS011;66719;51.226;6.902;2023-02-18T06:41:24;10.37;;;3.70;;
4835;SDS011;66719;51.226;6.902;2023-02-18T06:43:51;9.90;;;4.07;;
4835;SDS011;66719;51.226;6.902;2023-02-18T06:46:17;10.20;;;3.93;;
4835;SDS011;66719;51.226;6.902;2023-02-18T06:48:44;7.90;;;3.23;;
4835;SDS011;66719;51.226;6.902;2023-02-18T06:51:10;10.33;;;3.70;;
4835;SDS011;66719;51.226;6.902;2023-02-18T06:53:37;8.70;;;3.27;;
4835;SDS011;66719;51.226;6.902;2023-02-18T06:56:03;8.53;;;3.70;;
4835;SDS011;66719;51.226;6.902;2023-02-18T06:58:30;7.90;;;3.60;;
4835;SDS011;66719;51.226;6.902;2023-02-18T07:00:56;8.60;;;3.50;;
4835;SDS011;66719;51.226;6.902;2023-02-18T07:03:23;8.10;;;3.50;;
4835;SDS011;66719;51.226;6.902;2023-02-18T07:05:50;9.27;;;3.23;;
4835;SDS011;66719;51.226;6.902;2023-02-18T07:08:16;8.50;;;3.40;;
4835;SDS011;66719;51.226;6.902;2023-02-18T07:10:43;9.30;;;3.50;;
4835;SDS011;66719;51.226;6.902;2023-02-18T07:13:09;7.77;;;3.03;;
4835;SDS011;66719;51.226;6.902;2023-02-18T07:15:36;7.93;;;3.33;;
4835;SDS011;66719;51.226;6.902;2023-02-18T07:18:03;10.00;;;3.77;;
4835;SDS011;66719;51.226;6.902;2023-02-18T07:20:29;7.53;;;3.10;;
4835;SDS011;66719;51.226;6.902;2023-02-18T07:22:56;8.80;;;3.13;;
4835;SDS011;66719;51.226;6.902;2023-02-18T07:25:22;7.70;;;2.87;;
4835;SDS011;66719;51.226;6.902;2023-02-18T07:27:49;8.07;;;2.83;;
4835;SDS011;66719;51.226;6.902;2023-02-18T07:30:16;8.30;;;2.73;;
4835;SDS011;66719;51.226;6.902;2023-02-18T07:32:44;7.73;;;2.70;;
4835;SDS011;66719;51.226;6.902;2023-02-18T07:35:14;7.70;;;2.90;;
4835;SDS011;66719;51.226;6.902;2023-02-18T07:37:45;10.60;;;2.90;;
4835;SDS011;66719;51.226;6.902;2023-02-18T07:40:14;7.50;;;2.70;;
4835;SDS011;66719;51.226;6.902;2023-02-18T07:42:42;6.60;;;2.17;;
4835;SDS011;66719;51.226;6.902;2023-02-18T07:45:09;7.20;;;2.40;;
4835;SDS011;66719;51.226;6.902;2023-02-18T07:47:37;8.27;;;2.33;;
4835;SDS011;66719;51.226;6.902;2023-02-18T07:50:04;7.87;;;2.80;;
4835;SDS011;66719;51.226;6.902;2023-02-18T07:52:31;7.10;;;2.40;;
4835;SDS011;66719;51.226;6.902;2023-02-18T07:54:58;7.30;;;2.53;;
4835;SDS011;66719;51.226;6.902;2023-02-18T07:57:24;8.10;;;2.90;;
4835;SDS011;66719;51.226;6.902;2023-02-18T07:59:51;7.23;;;2.57;;
4835;SDS011;66719;51.226;6.902;2023-02-18T08:02:18;7.70;;;2.50;;
4835;SDS011;66719;51.226;6.902;2023-02-18T08:04:46;7.50;;;2.33;;
4835;SDS011;66719;51.226;6.902;2023-02-18T08:07:14;7.40;;;2.50;;
4835;SDS011;66719;51.226;6.902;2023-02-18T08:09:42;7.67;;;2.23;;
4835;SDS011;66719;51.226;6.902;2023-02-18T08:12:08;8.53;;;2.40;;
4835;SDS011;66719;51.226;6.902;2023-02-18T08:14:35;8.77;;;2.50;;
4835;SDS011;66719;51.226;6.902;2023-02-18T08:17:01;8.40;;;2.43;;
4835;SDS011;66719;51.226;6.902;2023-02-18T08:19:28;10.07;;;2.77;;
4835;SDS011;66719;51.226;6.902;2023-02-18T08:21:54;8.40;;;2.60;;
4835;SDS011;66719;51.226;6.902;2023-02-18T08:24:21;11.27;;;2.33;;
4835;SDS011;66719;51.226;6.902;2023-02-18T08:26:47;9.10;;;2.43;;
4835;SDS011;66719;51.226;6.902;2023-02-18T08:29:25;10.53;;;2.67;;
4835;SDS011;66719;51.226;6.902;2023-02-18T08:31:52;11.00;;;3.23;;
4835;SDS011;66719;51.226;6.902;2023-02-18T08:34:20;10.00;;;2.87;;
4835;SDS011;66719;51.226;6.902;2023-02-18T08:36:46;9.63;;;3.37;;
4835;SDS011;66719;51.226;6.902;2023-02-18T08:39:13;8.70;;;2.80;;
4835;SDS011;66719;51.226;6.902;2023-02-18T08:41:39;10.00;;;2.23;;
4835;SDS011;66719;51.226;6.902;2023-02-18T08:44:06;10.03;;;2.77;;
4835;SDS011;66719;51.226;6.902;2023-02-18T08:46:32;11.10;;;2.37;;
4835;SDS011;66719;51.226;6.902;2023-02-18T08:49:02;15.60;;;2.50;;
4835;SDS011;66719;51.226;6.902;2023-02-18T08:51:29;10.67;;;2.83;;
4835;SDS011;66719;51.226;6.902;2023-02-18T08:53:56;9.27;;;2.87;;
4835;SDS011;66719;51.226;6.902;2023-02-18T08:56:23;13.80;;;2.57;;
4835;SDS011;66719;51.226;6.902;2023-02-18T08:58:50;11.63;;;2.50;;
4835;SDS011;66719;51.226;6.902;2023-02-18T09:01:16;17.30;;;3.40;;
4835;SDS011;66719;51.226;6.902;2023-02-18T09:03:43;13.57;;;2.90;;
4835;SDS011;66719;51.226;6.902;2023-02-18T09:06:09;11.90;;;2.90;;
4835;SDS011;66719;51.226;6.902;2023-02-18T09:08:35;13.50;;;2.60;;
4835;SDS011;66719;51.226;6.902;2023-02-18T09:11:02;17.77;;;3.80;;
4835;SDS011;66719;51.226;6.902;2023-02-18T09:13:30;13.83;;;2.60;;
4835;SDS011;66719;51.226;6.902;2023-02-18T09:15:58;16.37;;;3.83;;
4835;SDS011;66719;51.226;6.902;2023-02-18T09:18:30;15.00;;;2.90;;
4835;SDS011;66719;51.226;6.902;2023-02-18T09:20:58;13.53;;;3.20;;
4835;SDS011;66719;51.226;6.902;2023-02-18T09:23:26;16.30;;;3.17;;
4835;SDS011;66719;51.226;6.902;2023-02-18T09:25:56;11.50;;;3.17;;
4835;SDS011;66719;51.226;6.902;2023-02-18T09:28:23;13.97;;;3.07;;
4835;SDS011;66719;51.226;6.902;2023-02-18T09:30:51;12.60;;;2.93;;
4835;SDS011;66719;51.226;6.902;2023-02-18T09:33:17;11.53;;;3.23;;
4835;SDS011;66719;51.226;6.902;2023-02-18T09:35:44;19.10;;;3.23;;
4835;SDS011;66719;51.226;6.902;2023-02-18T09:38:13;14.07;;;3.00;;
4835;SDS011;66719;51.226;6.902;2023-02-18T09:40:46;16.83;;;3.00;;
4835;SDS011;66719;51.226;6.902;2023-02-18T09:44:03;13.63;;;3.13;;
4835;SDS011;66719;51.226;6.902;2023-02-18T09:46:14;22.17;;;3.63;;
4835;SDS011;66719;51.226;6.902;2023-02-18T09:48:47;17.47;;;3.17;;
4835;SDS011;66719;51.226;6.902;2023-02-18T09:51:14;16.30;;;3.63;;
4835;SDS011;66719;51.226;6.902;2023-02-18T09:53:42;19.10;;;4.03;;
4835;SDS011;66719;51.226;6.902;2023-02-18T09:56:13;18.73;;;3.30;;
4835;SDS011;66719;51.226;6.902;2023-02-18T09:58:42;14.30;;;3.40;;
4835;SDS011;66719;51.226;6.902;2023-02-18T10:04:01;12.47;;;3.03;;
4835;SDS011;66719;51.226;6.902;2023-02-18T10:06:33;16.50;;;3.03;;
4835;SDS011;66719;51.226;6.902;2023-02-18T10:09:01;16.20;;;3.37;;
4835;SDS011;66719;51.226;6.902;2023-02-18T10:11:32;17.53;;;4.13;;
4835;SDS011;66719;51.226;6.902;2023-02-18T10:14:05;17.27;;;3.63;;
4835;SDS011;66719;51.226;6.902;2023-02-18T10:16:36;16.27;;;3.70;;
4835;SDS011;66719;51.226;6.902;2023-02-18T10:19:16;16.53;;;3.03;;
4835;SDS011;66719;51.226;6.902;2023-02-18T10:21:47;16.83;;;2.87;;
4835;SDS011;66719;51.226;6.902;2023-02-18T10:26:50;21.43;;;3.40;;
4835;SDS011;66719;51.226;6.902;2023-02-18T10:29:17;16.13;;;2.97;;
4835;SDS011;66719;51.226;6.902;2023-02-18T10:34:29;27.03;;;3.83;;
4835;SDS011;66719;51.226;6.902;2023-02-18T10:37:10;16.53;;;2.97;;
4835;SDS011;66719;51.226;6.902;2023-02-18T10:42:27;18.60;;;3.70;;
4835;SDS011;66719;51.226;6.902;2023-02-18T10:45:18;14.90;;;2.80;;
4835;SDS011;66719;51.226;6.902;2023-02-18T10:50:28;16.27;;;2.80;;
4835;SDS011;66719;51.226;6.902;2023-02-18T10:52:56;20.73;;;4.03;;
4835;SDS011;66719;51.226;6.902;2023-02-18T10:55:35;16.80;;;3.70;;
4835;SDS011;66719;51.226;6.902;2023-02-18T10:58:22;14.83;;;3.17;;
4835;SDS011;66719;51.226;6.902;2023-02-18T11:00:55;15.03;;;3.70;;
4835;SDS011;66719;51.226;6.902;2023-02-18T11:03:23;11.43;;;2.70;;
4835;SDS011;66719;51.226;6.902;2023-02-18T11:05:52;19.17;;;3.57;;
4835;SDS011;66719;51.226;6.902;2023-02-18T11:08:26;18.40;;;4.00;;
4835;SDS011;66719;51.226;6.902;2023-02-18T11:10:54;16.40;;;4.27;;
4835;SDS011;66719;51.226;6.902;2023-02-18T11:13:23;21.03;;;3.80;;
4835;SDS011;66719;51.226;6.902;2023-02-18T11:20:58;18.00;;;4.10;;
4835;SDS011;66719;51.226;6.902;2023-02-18T11:23:27;16.47;;;4.50;;
4835;SDS011;66719;51.226;6.902;2023-02-18T11:28:27;16.60;;;4.67;;
4835;SDS011;66719;51.226;6.902;2023-02-18T11:31:00;12.40;;;4.63;;
4835;SDS011;66719;51.226;6.902;2023-02-18T11:33:39;14.73;;;4.00;;
4835;SDS011;66719;51.226;6.902;2023-02-18T11:38:48;10.90;;;3.70;;
4835;SDS011;66719;51.226;6.902;2023-02-18T11:41:40;17.43;;;4.07;;
4835;SDS011;66719;51.226;6.902;2023-02-18T11:44:32;11.70;;;3.07;;
4835;SDS011;66719;51.226;6.902;2023-02-18T11:49:39;12.63;;;3.10;;
4835;SDS011;66719;51.226;6.902;2023-02-18T11:54:46;13.73;;;3.47;;
4835;SDS011;66719;51.226;6.902;2023-02-18T11:57:25;15.43;;;3.90;;
4835;SDS011;66719;51.226;6.902;2023-02-18T11:59:53;13.80;;;3.00;;
4835;SDS011;66719;51.226;6.902;2023-02-18T12:05:03;12.10;;;3.10;;
4835;SDS011;66719;51.226;6.902;2023-02-18T12:07:50;12.10;;;3.50;;
4835;SDS011;66719;51.226;6.902;2023-02-18T12:10:32;15.47;;;4.30;;
4835;SDS011;66719;51.226;6.902;2023-02-18T12:13:05;9.00;;;3.20;;
4835;SDS011;66719;51.226;6.902;2023-02-18T12:18:39;15.90;;;4.10;;
4835;SDS011;66719;51.226;6.902;2023-02-18T12:27:22;12.20;;;3.60;;
4835;SDS011;66719;51.226;6.902;2023-02-18T12:32:47;9.80;;;3.60;;
4835;SDS011;66719;51.226;6.902;2023-02-18T12:35:34;11.87;;;3.50;;
4835;SDS011;66719;51.226;6.902;2023-02-18T12:46:59;10.97;;;3.60;;
4835;SDS011;66719;51.226;6.902;2023-02-18T12:52:46;9.47;;;3.13;;
4835;SDS011;66719;51.226;6.902;2023-02-18T12:57:42;22.60;;;5.90;;
4835;SDS011;66719;51.226;6.902;2023-02-18T13:00:33;7.93;;;3.20;;
4835;SDS011;66719;51.226;6.902;2023-02-18T13:09:07;9.50;;;3.33;;
4835;SDS011;66719;51.226;6.902;2023-02-18T13:17:29;9.67;;;3.63;;
4835;SDS011;66719;51.226;6.902;2023-02-18T13:20:06;9.50;;;3.60;;
4835;SDS011;66719;51.226;6.902;2023-02-18T13:22:44;9.03;;;3.50;;
4835;SDS011;66719;51.226;6.902;2023-02-18T13:25:15;9.90;;;3.83;;
4835;SDS011;66719;51.226;6.902;2023-02-18T13:27:57;9.33;;;3.50;;
4835;SDS011;66719;51.226;6.902;2023-02-18T13:30:41;10.40;;;3.97;;
4835;SDS011;66719;51.226;6.902;2023-02-18T13:33:18;9.57;;;4.10;;
4835;SDS011;66719;51.226;6.902;2023-02-18T13:36:02;10.90;;;4.17;;
4835;SDS011;66719;51.226;6.902;2023-02-18T13:38:44;12.20;;;3.60;;
4835;SDS011;66719;51.226;6.902;2023-02-18T13:41:19;11.57;;;3.83;;
4835;SDS011;66719;51.226;6.902;2023-02-18T13:43:46;9.63;;;3.80;;
4835;SDS011;66719;51.226;6.902;2023-02-18T13:46:14;9.93;;;3.83;;
4835;SDS011;66719;51.226;6.902;2023-02-18T13:48:54;9.93;;;4.20;;
4835;SDS011;66719;51.226;6.902;2023-02-18T13:56:42;10.30;;;4.10;;
4835;SDS011;66719;51.226;6.902;2023-02-18T13:59:57;10.90;;;4.20;;
4835;SDS011;66719;51.226;6.902;2023-02-18T14:04:47;8.60;;;4.00;;
4835;SDS011;66719;51.226;6.902;2023-02-18T14:09:55;11.30;;;4.70;;
4835;SDS011;66719;51.226;6.902;2023-02-18T14:14:56;12.43;;;4.43;;
4835;SDS011;66719;51.226;6.902;2023-02-18T14:19:54;13.10;;;5.00;;
4835;SDS011;66719;51.226;6.902;2023-02-18T14:22:30;11.33;;;4.47;;
4835;SDS011;66719;51.226;6.902;2023-02-18T14:27:36;10.90;;;4.83;;
4835;SDS011;66719;51.226;6.902;2023-02-18T14:30:15;11.67;;;4.60;;
4835;SDS011;66719;51.226;6.902;2023-02-18T14:32:45;11.80;;;4.57;;
4835;SDS011;66719;51.226;6.902;2023-02-18T14:35:17;13.00;;;4.90;;
4835;SDS011;66719;51.226;6.902;2023-02-18T14:43:15;11.03;;;4.80;;
4835;SDS011;66719;51.226;6.902;2023-02-18T14:51:43;9.80;;;4.10;;
4835;SDS011;66719;51.226;6.902;2023-02-18T14:54:14;11.07;;;4.30;;
4835;SDS011;66719;51.226;6.902;2023-02-18T14:56:52;12.53;;;4.37;;
4835;SDS011;66719;51.226;6.902;2023-02-18T14:59:20;9.17;;;3.90;;
4835;SDS011;66719;51.226;6.902;2023-02-18T15:01:53;11.57;;;5.30;;
4835;SDS011;66719;51.226;6.902;2023-02-18T15:04:22;9.80;;;4.17;;
4835;SDS011;66719;51.226;6.902;2023-02-18T15:07:03;14.40;;;4.43;;
4835;SDS011;66719;51.226;6.902;2023-02-18T15:09:34;11.40;;;4.50;;
4835;SDS011;66719;51.226;6.902;2023-02-18T15:12:23;11.33;;;4.40;;
4835;SDS011;66719;51.226;6.902;2023-02-18T15:14:51;10.27;;;4.00;;
4835;SDS011;66719;51.226;6.902;2023-02-18T15:17:21;11.70;;;4.03;;
4835;SDS011;66719;51.226;6.902;2023-02-18T15:19:50;9.70;;;4.30;;
4835;SDS011;66719;51.226;6.902;2023-02-18T15:22:20;11.10;;;4.17;;
4835;SDS011;66719;51.226;6.902;2023-02-18T15:24:49;11.27;;;4.10;;
4835;SDS011;66719;51.226;6.902;2023-02-18T15:27:18;8.93;;;3.57;;
4835;SDS011;66719;51.226;6.902;2023-02-18T15:29:50;10.40;;;3.80;;
4835;SDS011;66719;51.226;6.902;2023-02-18T15:32:20;14.83;;;4.30;;
4835;SDS011;66719;51.226;6.902;2023-02-18T15:34:51;11.90;;;4.03;;
4835;SDS011;66719;51.226;6.902;2023-02-18T15:37:27;9.53;;;3.67;;
4835;SDS011;66719;51.226;6.902;2023-02-18T15:39:55;9.00;;;3.70;;
4835;SDS011;66719;51.226;6.902;2023-02-18T15:42:25;11.90;;;4.23;;
4835;SDS011;66719;51.226;6.902;2023-02-18T15:44:56;11.03;;;4.30;;
4835;SDS011;66719;51.226;6.902;2023-02-18T15:47:41;8.60;;;3.90;;
4835;SDS011;66719;51.226;6.902;2023-02-18T15:50:19;11.00;;;4.40;;
4835;SDS011;66719;51.226;6.902;2023-02-18T15:52:49;10.87;;;4.20;;
4835;SDS011;66719;51.226;6.902;2023-02-18T15:55:21;10.73;;;3.83;;
4835;SDS011;66719;51.226;6.902;2023-02-18T15:57:52;11.93;;;4.10;;
4835;SDS011;66719;51.226;6.902;2023-02-18T16:00:25;11.87;;;5.43;;
4835;SDS011;66719;51.226;6.902;2023-02-18T16:02:56;12.33;;;4.30;;
4835;SDS011;66719;51.226;6.902;2023-02-18T16:05:29;11.30;;;4.83;;
4835;SDS011;66719;51.226;6.902;2023-02-18T16:07:58;10.03;;;4.30;;
4835;SDS011;66719;51.226;6.902;2023-02-18T16:13:02;9.90;;;3.97;;
4835;SDS011;66719;51.226;6.902;2023-02-18T16:15:30;11.57;;;4.40;;
4835;SDS011;66719;51.226;6.902;2023-02-18T16:18:02;10.93;;;4.60;;
4835;SDS011;66719;51.226;6.902;2023-02-18T16:20:31;15.50;;;4.80;;
4835;SDS011;66719;51.226;6.902;2023-02-18T16:23:07;12.50;;;4.10;;
4835;SDS011;66719;51.226;6.902;2023-02-18T16:28:06;10.13;;;4.50;;
4835;SDS011;66719;51.226;6.902;2023-02-18T16:30:38;12.53;;;4.90;;
4835;SDS011;66719;51.226;6.902;2023-02-18T16:33:06;13.40;;;4.70;;
4835;SDS011;66719;51.226;6.902;2023-02-18T16:35:33;10.10;;;4.70;;
4835;SDS011;66719;51.226;6.902;2023-02-18T16:38:16;12.10;;;5.17;;
4835;SDS011;66719;51.226;6.902;2023-02-18T16:40:45;10.77;;;4.87;;
4835;SDS011;66719;51.226;6.902;2023-02-18T16:43:21;12.00;;;4.90;;
4835;SDS011;66719;51.226;6.902;2023-02-18T16:45:51;12.63;;;4.67;;
4835;SDS011;66719;51.226;6.902;2023-02-18T16:48:29;13.40;;;5.40;;
4835;SDS011;66719;51.226;6.902;2023-02-18T16:51:04;14.33;;;5.60;;
4835;SDS011;66719;51.226;6.902;2023-02-18T16:53:34;19.57;;;5.90;;
4835;SDS011;66719;51.226;6.902;2023-02-18T16:56:01;14.93;;;4.97;;
4835;SDS011;66719;51.226;6.902;2023-02-18T16:58:28;17.00;;;5.40;;
4835;SDS011;66719;51.226;6.902;2023-02-18T17:00:54;11.60;;;4.93;;
4835;SDS011;66719;51.226;6.902;2023-02-18T17:03:21;14.50;;;5.30;;
4835;SDS011;66719;51.226;6.902;2023-02-18T17:05:47;13.53;;;4.80;;
4835;SDS011;66719;51.226;6.902;2023-02-18T17:10:46;11.30;;;5.17;;
4835;SDS011;66719;51.226;6.902;2023-02-18T17:13:14;15.30;;;5.60;;
4835;SDS011;66719;51.226;6.902;2023-02-18T17:15:45;13.27;;;5.10;;
4835;SDS011;66719;51.226;6.902;2023-02-18T17:18:13;15.73;;;5.20;;
4835;SDS011;66719;51.226;6.902;2023-02-18T17:20:43;13.67;;;4.93;;
4835;SDS011;66719;51.226;6.902;2023-02-18T17:23:12;15.20;;;5.43;;
4835;SDS011;66719;51.226;6.902;2023-02-18T17:25:43;17.80;;;6.40;;
4835;SDS011;66719;51.226;6.902;2023-02-18T17:28:10;13.07;;;6.00;;
4835;SDS011;66719;51.226;6.902;2023-02-18T17:30:37;15.10;;;5.80;;